sensor_id;sensor_type;location;lat;lon;timestamp;P1;durP1;ratioP1;P2;durP2;ratioP2
7939;SDS011;4015;48.888;9.226;2023-03-31T00:00:18;4.10;;;1.83;;
7939;SDS011;4015;48.888;9.226;2023-03-31T00:02:44;2.93;;;1.83;;
7939;SDS011;4015;48.888;9.226;2023-03-31T00:05:10;5.33;;;1.70;;
7939;SDS011;4015;48.888;9.226;2023-03-31T00:07:35;5.70;;;1.87;;
7939;SDS011;4015;48.888;9.226;2023-03-31T00:10:04;4.47;;;1.63;;
7939;SDS011;4015;48.888;9.226;2023-03-31T00:12:30;5.53;;;1.80;;
7939;SDS011;4015;48.888;9.226;2023-03-31T00:14:55;6.63;;;2.07;;
7939;SDS011;4015;48.888;9.226;2023-03-31T00:17:21;4.23;;;1.60;;
7939;SDS011;4015;48.888;9.226;2023-03-31T00:19:46;2.53;;;1.47;;
7939;SDS011;4015;48.888;9.226;2023-03-31T00:22:14;6.97;;;1.93;;
7939;SDS011;4015;48.888;9.226;2023-03-31T00:24:46;3.73;;;1.53;;
7939;SDS011;4015;48.888;9.226;2023-03-31T00:27:11;5.33;;;1.90;;
7939;SDS011;4015;48.888;9.226;2023-03-31T00:29:37;3.03;;;1.60;;
7939;SDS011;4015;48.888;9.226;2023-03-31T00:32:06;5.37;;;1.80;;
7939;SDS011;4015;48.888;9.226;2023-03-31T00:34:32;5.87;;;1.90;;
7939;SDS011;4015;48.888;9.226;2023-03-31T00:36:58;4.60;;;1.97;;
7939;SDS011;4015;48.888;9.226;2023-03-31T00:39:26;4.33;;;1.77;;
7939;SDS011;4015;48.888;9.226;2023-03-31T00:41:56;4.77;;;1.83;;
7939;SDS011;4015;48.888;9.226;2023-03-31T00:44:23;4.87;;;1.50;;
7939;SDS011;4015;48.888;9.226;2023-03-31T00:47:03;4.70;;;2.03;;
7939;SDS011;4015;48.888;9.226;2023-03-31T00:49:37;5.10;;;1.77;;
7939;SDS011;4015;48.888;9.226;2023-03-31T00:54:46;7.47;;;2.10;;
7939;SDS011;4015;48.888;9.226;2023-03-31T00:57:15;7.53;;;2.07;;
7939;SDS011;4015;48.888;9.226;2023-03-31T00:59:48;4.00;;;1.60;;
7939;SDS011;4015;48.888;9.226;2023-03-31T01:02:17;4.17;;;1.70;;
7939;SDS011;4015;48.888;9.226;2023-03-31T01:04:47;5.70;;;2.07;;
7939;SDS011;4015;48.888;9.226;2023-03-31T01:10:00;5.37;;;2.27;;
7939;SDS011;4015;48.888;9.226;2023-03-31T01:12:29;6.03;;;2.10;;
7939;SDS011;4015;48.888;9.226;2023-03-31T01:14:57;5.20;;;1.97;;
7939;SDS011;4015;48.888;9.226;2023-03-31T01:17:23;4.47;;;2.00;;
7939;SDS011;4015;48.888;9.226;2023-03-31T01:22:44;6.00;;;2.43;;
7939;SDS011;4015;48.888;9.226;2023-03-31T01:43:22;6.77;;;2.60;;
7939;SDS011;4015;48.888;9.226;2023-03-31T01:48:43;4.57;;;1.80;;
7939;SDS011;4015;48.888;9.226;2023-03-31T01:54:46;5.63;;;2.03;;
7939;SDS011;4015;48.888;9.226;2023-03-31T01:57:26;5.07;;;1.77;;
7939;SDS011;4015;48.888;9.226;2023-03-31T02:02:29;5.03;;;1.97;;
7939;SDS011;4015;48.888;9.226;2023-03-31T02:04:58;7.17;;;2.83;;
7939;SDS011;4015;48.888;9.226;2023-03-31T02:07:29;5.37;;;1.53;;
7939;SDS011;4015;48.888;9.226;2023-03-31T02:09:58;6.43;;;1.70;;
7939;SDS011;4015;48.888;9.226;2023-03-31T02:12:28;6.20;;;1.80;;
7939;SDS011;4015;48.888;9.226;2023-03-31T02:14:56;9.03;;;2.00;;
7939;SDS011;4015;48.888;9.226;2023-03-31T02:17:24;1.33;;;1.10;;
7939;SDS011;4015;48.888;9.226;2023-03-31T02:19:54;4.70;;;2.03;;
7939;SDS011;4015;48.888;9.226;2023-03-31T02:22:23;6.63;;;1.70;;
7939;SDS011;4015;48.888;9.226;2023-03-31T02:24:51;5.53;;;1.90;;
7939;SDS011;4015;48.888;9.226;2023-03-31T02:27:25;5.33;;;1.80;;
7939;SDS011;4015;48.888;9.226;2023-03-31T02:29:57;3.07;;;1.40;;
7939;SDS011;4015;48.888;9.226;2023-03-31T02:35:02;5.50;;;1.87;;
7939;SDS011;4015;48.888;9.226;2023-03-31T02:37:30;5.30;;;1.70;;
7939;SDS011;4015;48.888;9.226;2023-03-31T02:39:56;4.87;;;1.63;;
7939;SDS011;4015;48.888;9.226;2023-03-31T02:42:24;3.20;;;1.37;;
7939;SDS011;4015;48.888;9.226;2023-03-31T02:44:49;4.83;;;1.40;;
7939;SDS011;4015;48.888;9.226;2023-03-31T02:47:15;3.73;;;1.30;;
7939;SDS011;4015;48.888;9.226;2023-03-31T02:49:50;6.77;;;1.80;;
7939;SDS011;4015;48.888;9.226;2023-03-31T02:52:27;6.13;;;1.90;;
7939;SDS011;4015;48.888;9.226;2023-03-31T03:08:41;4.70;;;1.97;;
7939;SDS011;4015;48.888;9.226;2023-03-31T03:11:17;4.60;;;1.70;;
7939;SDS011;4015;48.888;9.226;2023-03-31T03:13:54;7.97;;;2.30;;
7939;SDS011;4015;48.888;9.226;2023-03-31T03:19:16;8.03;;;2.07;;
7939;SDS011;4015;48.888;9.226;2023-03-31T03:21:43;5.63;;;2.20;;
7939;SDS011;4015;48.888;9.226;2023-03-31T03:24:09;9.97;;;2.10;;
7939;SDS011;4015;48.888;9.226;2023-03-31T03:26:35;5.90;;;1.90;;
7939;SDS011;4015;48.888;9.226;2023-03-31T03:29:00;5.37;;;2.50;;
7939;SDS011;4015;48.888;9.226;2023-03-31T03:31:26;5.40;;;1.90;;
7939;SDS011;4015;48.888;9.226;2023-03-31T03:33:51;6.63;;;2.63;;
7939;SDS011;4015;48.888;9.226;2023-03-31T03:36:17;7.77;;;2.47;;
7939;SDS011;4015;48.888;9.226;2023-03-31T03:38:43;8.63;;;2.67;;
7939;SDS011;4015;48.888;9.226;2023-03-31T03:41:08;7.27;;;2.23;;
7939;SDS011;4015;48.888;9.226;2023-03-31T03:43:34;4.50;;;1.93;;
7939;SDS011;4015;48.888;9.226;2023-03-31T03:45:59;5.17;;;2.30;;
7939;SDS011;4015;48.888;9.226;2023-03-31T03:48:25;5.73;;;2.60;;
7939;SDS011;4015;48.888;9.226;2023-03-31T03:50:50;8.97;;;3.00;;
7939;SDS011;4015;48.888;9.226;2023-03-31T03:53:17;5.87;;;2.30;;
7939;SDS011;4015;48.888;9.226;2023-03-31T03:55:42;10.33;;;3.77;;
7939;SDS011;4015;48.888;9.226;2023-03-31T03:58:09;6.73;;;2.80;;
7939;SDS011;4015;48.888;9.226;2023-03-31T04:00:34;8.67;;;2.50;;
7939;SDS011;4015;48.888;9.226;2023-03-31T04:03:00;7.20;;;2.70;;
7939;SDS011;4015;48.888;9.226;2023-03-31T04:05:26;10.27;;;3.37;;
7939;SDS011;4015;48.888;9.226;2023-03-31T04:07:51;4.60;;;2.17;;
7939;SDS011;4015;48.888;9.226;2023-03-31T04:10:16;6.10;;;3.17;;
7939;SDS011;4015;48.888;9.226;2023-03-31T04:12:42;6.33;;;2.77;;
7939;SDS011;4015;48.888;9.226;2023-03-31T04:15:07;4.73;;;2.60;;
7939;SDS011;4015;48.888;9.226;2023-03-31T04:17:33;5.73;;;2.60;;
7939;SDS011;4015;48.888;9.226;2023-03-31T04:20:06;3.67;;;2.63;;
7939;SDS011;4015;48.888;9.226;2023-03-31T04:22:34;5.67;;;2.90;;
7939;SDS011;4015;48.888;9.226;2023-03-31T04:25:04;4.70;;;3.00;;
7939;SDS011;4015;48.888;9.226;2023-03-31T04:27:38;5.43;;;2.33;;
7939;SDS011;4015;48.888;9.226;2023-03-31T04:30:14;6.37;;;3.03;;
7939;SDS011;4015;48.888;9.226;2023-03-31T04:32:50;4.17;;;2.73;;
7939;SDS011;4015;48.888;9.226;2023-03-31T04:35:19;5.30;;;3.27;;
7939;SDS011;4015;48.888;9.226;2023-03-31T04:37:50;12.23;;;5.87;;
7939;SDS011;4015;48.888;9.226;2023-03-31T04:40:22;5.03;;;3.03;;
7939;SDS011;4015;48.888;9.226;2023-03-31T04:42:48;4.17;;;2.40;;
7939;SDS011;4015;48.888;9.226;2023-03-31T04:45:14;8.13;;;2.83;;
7939;SDS011;4015;48.888;9.226;2023-03-31T04:47:39;4.70;;;3.23;;
7939;SDS011;4015;48.888;9.226;2023-03-31T04:50:04;5.17;;;2.70;;
7939;SDS011;4015;48.888;9.226;2023-03-31T04:52:30;9.33;;;2.87;;
7939;SDS011;4015;48.888;9.226;2023-03-31T04:54:56;7.10;;;3.13;;
7939;SDS011;4015;48.888;9.226;2023-03-31T04:57:21;5.30;;;3.23;;
7939;SDS011;4015;48.888;9.226;2023-03-31T04:59:46;12.27;;;3.43;;
7939;SDS011;4015;48.888;9.226;2023-03-31T05:02:12;14.70;;;9.37;;
7939;SDS011;4015;48.888;9.226;2023-03-31T05:04:37;8.37;;;3.50;;
7939;SDS011;4015;48.888;9.226;2023-03-31T05:07:02;5.20;;;3.07;;
7939;SDS011;4015;48.888;9.226;2023-03-31T05:09:28;6.87;;;3.57;;
7939;SDS011;4015;48.888;9.226;2023-03-31T05:11:54;7.40;;;3.67;;
7939;SDS011;4015;48.888;9.226;2023-03-31T05:14:21;6.73;;;3.03;;
7939;SDS011;4015;48.888;9.226;2023-03-31T05:16:46;7.60;;;3.30;;
7939;SDS011;4015;48.888;9.226;2023-03-31T05:19:12;7.13;;;4.10;;
7939;SDS011;4015;48.888;9.226;2023-03-31T05:21:37;7.63;;;3.23;;
7939;SDS011;4015;48.888;9.226;2023-03-31T05:24:02;5.87;;;3.27;;
7939;SDS011;4015;48.888;9.226;2023-03-31T05:26:28;6.43;;;3.20;;
7939;SDS011;4015;48.888;9.226;2023-03-31T05:28:54;11.60;;;3.90;;
7939;SDS011;4015;48.888;9.226;2023-03-31T05:31:19;8.47;;;3.60;;
7939;SDS011;4015;48.888;9.226;2023-03-31T05:33:45;11.27;;;3.53;;
7939;SDS011;4015;48.888;9.226;2023-03-31T05:36:15;9.90;;;3.70;;
7939;SDS011;4015;48.888;9.226;2023-03-31T05:38:41;9.83;;;3.77;;
7939;SDS011;4015;48.888;9.226;2023-03-31T05:41:07;12.63;;;3.43;;
7939;SDS011;4015;48.888;9.226;2023-03-31T05:43:35;11.53;;;4.27;;
7939;SDS011;4015;48.888;9.226;2023-03-31T05:46:01;11.87;;;4.17;;
7939;SDS011;4015;48.888;9.226;2023-03-31T05:48:26;9.27;;;4.30;;
7939;SDS011;4015;48.888;9.226;2023-03-31T05:50:58;9.23;;;4.13;;
7939;SDS011;4015;48.888;9.226;2023-03-31T05:53:25;10.63;;;4.20;;
7939;SDS011;4015;48.888;9.226;2023-03-31T05:55:58;8.10;;;3.87;;
7939;SDS011;4015;48.888;9.226;2023-03-31T05:58:26;10.77;;;4.40;;
7939;SDS011;4015;48.888;9.226;2023-03-31T06:01:05;14.60;;;5.00;;
7939;SDS011;4015;48.888;9.226;2023-03-31T06:03:33;10.67;;;4.60;;
7939;SDS011;4015;48.888;9.226;2023-03-31T06:06:00;11.10;;;5.30;;
7939;SDS011;4015;48.888;9.226;2023-03-31T06:08:26;10.07;;;4.90;;
7939;SDS011;4015;48.888;9.226;2023-03-31T06:10:52;10.40;;;5.07;;
7939;SDS011;4015;48.888;9.226;2023-03-31T06:13:17;16.50;;;6.03;;
7939;SDS011;4015;48.888;9.226;2023-03-31T06:15:51;7.53;;;4.97;;
7939;SDS011;4015;48.888;9.226;2023-03-31T06:18:23;11.57;;;5.33;;
7939;SDS011;4015;48.888;9.226;2023-03-31T06:20:50;12.97;;;5.67;;
7939;SDS011;4015;48.888;9.226;2023-03-31T06:23:16;12.90;;;5.27;;
7939;SDS011;4015;48.888;9.226;2023-03-31T06:25:41;13.40;;;5.73;;
7939;SDS011;4015;48.888;9.226;2023-03-31T06:28:06;11.43;;;6.63;;
7939;SDS011;4015;48.888;9.226;2023-03-31T06:30:32;10.40;;;5.80;;
7939;SDS011;4015;48.888;9.226;2023-03-31T06:32:58;16.33;;;6.87;;
7939;SDS011;4015;48.888;9.226;2023-03-31T06:35:24;10.17;;;5.67;;
7939;SDS011;4015;48.888;9.226;2023-03-31T06:37:49;16.73;;;7.53;;
7939;SDS011;4015;48.888;9.226;2023-03-31T06:40:15;15.70;;;6.70;;
7939;SDS011;4015;48.888;9.226;2023-03-31T06:42:41;17.70;;;6.47;;
7939;SDS011;4015;48.888;9.226;2023-03-31T06:45:06;13.07;;;5.70;;
7939;SDS011;4015;48.888;9.226;2023-03-31T06:47:32;12.20;;;5.77;;
7939;SDS011;4015;48.888;9.226;2023-03-31T06:49:57;10.83;;;5.50;;
7939;SDS011;4015;48.888;9.226;2023-03-31T06:52:23;32.17;;;20.87;;
7939;SDS011;4015;48.888;9.226;2023-03-31T06:54:48;20.33;;;8.40;;
7939;SDS011;4015;48.888;9.226;2023-03-31T06:57:14;14.10;;;6.17;;
7939;SDS011;4015;48.888;9.226;2023-03-31T06:59:39;12.97;;;6.10;;
7939;SDS011;4015;48.888;9.226;2023-03-31T07:02:04;9.10;;;6.17;;
7939;SDS011;4015;48.888;9.226;2023-03-31T07:04:30;10.10;;;6.43;;
7939;SDS011;4015;48.888;9.226;2023-03-31T07:06:57;13.73;;;7.73;;
7939;SDS011;4015;48.888;9.226;2023-03-31T07:09:22;14.70;;;7.47;;
7939;SDS011;4015;48.888;9.226;2023-03-31T07:11:48;15.27;;;7.37;;
7939;SDS011;4015;48.888;9.226;2023-03-31T07:14:13;20.13;;;8.50;;
7939;SDS011;4015;48.888;9.226;2023-03-31T07:16:39;25.60;;;9.77;;
7939;SDS011;4015;48.888;9.226;2023-03-31T07:19:05;16.37;;;8.93;;
7939;SDS011;4015;48.888;9.226;2023-03-31T07:21:31;15.53;;;8.10;;
7939;SDS011;4015;48.888;9.226;2023-03-31T07:23:57;11.43;;;7.77;;
7939;SDS011;4015;48.888;9.226;2023-03-31T07:26:22;11.37;;;7.33;;
7939;SDS011;4015;48.888;9.226;2023-03-31T07:28:48;19.60;;;8.63;;
7939;SDS011;4015;48.888;9.226;2023-03-31T07:31:14;16.07;;;6.97;;
7939;SDS011;4015;48.888;9.226;2023-03-31T07:33:40;12.40;;;6.57;;
7939;SDS011;4015;48.888;9.226;2023-03-31T07:36:06;9.97;;;5.93;;
7939;SDS011;4015;48.888;9.226;2023-03-31T07:38:32;9.00;;;4.97;;
7939;SDS011;4015;48.888;9.226;2023-03-31T07:40:58;10.53;;;5.00;;
7939;SDS011;4015;48.888;9.226;2023-03-31T07:43:23;5.87;;;4.00;;
7939;SDS011;4015;48.888;9.226;2023-03-31T07:45:49;8.93;;;3.63;;
7939;SDS011;4015;48.888;9.226;2023-03-31T07:48:14;4.13;;;3.40;;
7939;SDS011;4015;48.888;9.226;2023-03-31T07:50:40;5.97;;;3.00;;
7939;SDS011;4015;48.888;9.226;2023-03-31T07:53:05;4.50;;;1.90;;
7939;SDS011;4015;48.888;9.226;2023-03-31T07:55:31;3.27;;;1.80;;
7939;SDS011;4015;48.888;9.226;2023-03-31T07:57:57;3.43;;;2.20;;
7939;SDS011;4015;48.888;9.226;2023-03-31T08:00:22;3.10;;;1.70;;
7939;SDS011;4015;48.888;9.226;2023-03-31T08:02:48;3.23;;;1.77;;
7939;SDS011;4015;48.888;9.226;2023-03-31T08:05:15;3.87;;;1.60;;
7939;SDS011;4015;48.888;9.226;2023-03-31T08:07:43;4.20;;;1.40;;
7939;SDS011;4015;48.888;9.226;2023-03-31T08:10:11;1.77;;;1.15;;
7939;SDS011;4015;48.888;9.226;2023-03-31T08:12:38;2.20;;;1.23;;
7939;SDS011;4015;48.888;9.226;2023-03-31T08:15:05;2.40;;;1.30;;
7939;SDS011;4015;48.888;9.226;2023-03-31T08:17:30;2.65;;;1.10;;
7939;SDS011;4015;48.888;9.226;2023-03-31T08:19:56;2.33;;;1.20;;
7939;SDS011;4015;48.888;9.226;2023-03-31T08:22:21;1.67;;;1.08;;
7939;SDS011;4015;48.888;9.226;2023-03-31T08:24:47;2.42;;;1.00;;
7939;SDS011;4015;48.888;9.226;2023-03-31T08:27:12;3.92;;;1.48;;
7939;SDS011;4015;48.888;9.226;2023-03-31T08:29:38;2.53;;;1.40;;
7939;SDS011;4015;48.888;9.226;2023-03-31T08:32:03;1.98;;;0.93;;
7939;SDS011;4015;48.888;9.226;2023-03-31T08:34:29;1.38;;;1.20;;
7939;SDS011;4015;48.888;9.226;2023-03-31T08:36:54;2.63;;;1.33;;
7939;SDS011;4015;48.888;9.226;2023-03-31T08:39:20;2.42;;;1.30;;
7939;SDS011;4015;48.888;9.226;2023-03-31T08:44:23;2.72;;;1.23;;
7939;SDS011;4015;48.888;9.226;2023-03-31T08:46:51;3.38;;;1.42;;
7939;SDS011;4015;48.888;9.226;2023-03-31T08:49:19;4.43;;;1.23;;
7939;SDS011;4015;48.888;9.226;2023-03-31T08:54:18;1.80;;;1.13;;
7939;SDS011;4015;48.888;9.226;2023-03-31T08:56:52;3.70;;;1.13;;
7939;SDS011;4015;48.888;9.226;2023-03-31T09:01:48;3.03;;;1.10;;
7939;SDS011;4015;48.888;9.226;2023-03-31T09:04:25;2.35;;;1.02;;
7939;SDS011;4015;48.888;9.226;2023-03-31T09:12:56;4.00;;;1.98;;
7939;SDS011;4015;48.888;9.226;2023-03-31T09:15:34;4.45;;;1.42;;
7939;SDS011;4015;48.888;9.226;2023-03-31T09:18:12;4.25;;;1.52;;
7939;SDS011;4015;48.888;9.226;2023-03-31T09:20:43;2.83;;;1.52;;
7939;SDS011;4015;48.888;9.226;2023-03-31T09:23:18;6.53;;;1.40;;
7939;SDS011;4015;48.888;9.226;2023-03-31T09:25:52;2.03;;;1.17;;
7939;SDS011;4015;48.888;9.226;2023-03-31T09:28:25;2.75;;;1.45;;
7939;SDS011;4015;48.888;9.226;2023-03-31T09:30:58;2.83;;;0.80;;
7939;SDS011;4015;48.888;9.226;2023-03-31T09:33:28;2.05;;;1.17;;
7939;SDS011;4015;48.888;9.226;2023-03-31T09:36:00;5.30;;;1.42;;
7939;SDS011;4015;48.888;9.226;2023-03-31T09:38:32;2.90;;;1.10;;
7939;SDS011;4015;48.888;9.226;2023-03-31T09:40:58;3.25;;;1.30;;
7939;SDS011;4015;48.888;9.226;2023-03-31T09:43:26;5.68;;;2.00;;
7939;SDS011;4015;48.888;9.226;2023-03-31T09:45:53;5.60;;;3.08;;
7939;SDS011;4015;48.888;9.226;2023-03-31T09:48:24;5.65;;;1.73;;
7939;SDS011;4015;48.888;9.226;2023-03-31T09:50:54;2.47;;;1.55;;
7939;SDS011;4015;48.888;9.226;2023-03-31T09:53:39;6.95;;;1.48;;
7939;SDS011;4015;48.888;9.226;2023-03-31T09:56:07;4.38;;;1.55;;
7939;SDS011;4015;48.888;9.226;2023-03-31T09:58:41;3.55;;;1.65;;
7939;SDS011;4015;48.888;9.226;2023-03-31T10:01:13;4.32;;;1.65;;
7939;SDS011;4015;48.888;9.226;2023-03-31T10:03:58;5.70;;;1.80;;
7939;SDS011;4015;48.888;9.226;2023-03-31T10:06:23;2.45;;;1.63;;
7939;SDS011;4015;48.888;9.226;2023-03-31T10:08:54;6.43;;;2.08;;
7939;SDS011;4015;48.888;9.226;2023-03-31T10:11:21;5.60;;;1.95;;
7939;SDS011;4015;48.888;9.226;2023-03-31T10:13:49;3.78;;;1.35;;
7939;SDS011;4015;48.888;9.226;2023-03-31T10:18:53;4.15;;;2.03;;
7939;SDS011;4015;48.888;9.226;2023-03-31T10:21:23;4.55;;;1.55;;
7939;SDS011;4015;48.888;9.226;2023-03-31T10:23:51;4.88;;;1.48;;
7939;SDS011;4015;48.888;9.226;2023-03-31T10:26:27;3.70;;;1.50;;
7939;SDS011;4015;48.888;9.226;2023-03-31T10:28:53;6.63;;;2.05;;
7939;SDS011;4015;48.888;9.226;2023-03-31T10:31:23;5.85;;;1.98;;
7939;SDS011;4015;48.888;9.226;2023-03-31T10:33:50;4.15;;;1.60;;
7939;SDS011;4015;48.888;9.226;2023-03-31T10:36:21;5.82;;;1.42;;
7939;SDS011;4015;48.888;9.226;2023-03-31T10:38:50;5.32;;;2.00;;
7939;SDS011;4015;48.888;9.226;2023-03-31T10:41:26;6.43;;;1.90;;
7939;SDS011;4015;48.888;9.226;2023-03-31T10:43:54;3.65;;;1.67;;
7939;SDS011;4015;48.888;9.226;2023-03-31T10:46:38;5.10;;;1.90;;
7939;SDS011;4015;48.888;9.226;2023-03-31T10:49:26;4.38;;;1.77;;
7939;SDS011;4015;48.888;9.226;2023-03-31T10:51:56;3.35;;;1.30;;
7939;SDS011;4015;48.888;9.226;2023-03-31T10:54:23;2.75;;;1.10;;
7939;SDS011;4015;48.888;9.226;2023-03-31T10:56:59;4.63;;;1.70;;
7939;SDS011;4015;48.888;9.226;2023-03-31T11:04:45;2.97;;;1.50;;
7939;SDS011;4015;48.888;9.226;2023-03-31T11:09:55;5.38;;;1.85;;
7939;SDS011;4015;48.888;9.226;2023-03-31T11:12:31;4.25;;;1.80;;
7939;SDS011;4015;48.888;9.226;2023-03-31T11:15:15;4.22;;;1.50;;
7939;SDS011;4015;48.888;9.226;2023-03-31T11:17:54;5.88;;;1.60;;
7939;SDS011;4015;48.888;9.226;2023-03-31T11:26:09;2.50;;;0.93;;
7939;SDS011;4015;48.888;9.226;2023-03-31T11:28:56;4.20;;;1.30;;
7939;SDS011;4015;48.888;9.226;2023-03-31T11:31:43;2.00;;;1.33;;
7939;SDS011;4015;48.888;9.226;2023-03-31T11:42:22;2.80;;;1.00;;
7939;SDS011;4015;48.888;9.226;2023-03-31T11:44:57;1.80;;;0.83;;
7939;SDS011;4015;48.888;9.226;2023-03-31T11:47:30;5.50;;;1.63;;
7939;SDS011;4015;48.888;9.226;2023-03-31T11:50:20;3.40;;;0.83;;
7939;SDS011;4015;48.888;9.226;2023-03-31T11:52:59;5.03;;;0.93;;
7939;SDS011;4015;48.888;9.226;2023-03-31T11:55:30;0.70;;;0.70;;
7939;SDS011;4015;48.888;9.226;2023-03-31T11:58:04;1.37;;;0.80;;
7939;SDS011;4015;48.888;9.226;2023-03-31T12:00:37;1.50;;;0.87;;
7939;SDS011;4015;48.888;9.226;2023-03-31T12:03:09;1.77;;;0.70;;
7939;SDS011;4015;48.888;9.226;2023-03-31T12:06:11;2.00;;;0.93;;
7939;SDS011;4015;48.888;9.226;2023-03-31T12:08:45;1.00;;;0.67;;
7939;SDS011;4015;48.888;9.226;2023-03-31T12:11:21;3.90;;;1.20;;
7939;SDS011;4015;48.888;9.226;2023-03-31T12:14:12;0.87;;;0.70;;
7939;SDS011;4015;48.888;9.226;2023-03-31T12:16:40;0.60;;;0.60;;
7939;SDS011;4015;48.888;9.226;2023-03-31T12:19:45;1.40;;;0.73;;
7939;SDS011;4015;48.888;9.226;2023-03-31T12:24:56;1.05;;;0.63;;
7939;SDS011;4015;48.888;9.226;2023-03-31T12:27:24;2.10;;;0.93;;
7939;SDS011;4015;48.888;9.226;2023-03-31T12:32:52;2.63;;;0.77;;
7939;SDS011;4015;48.888;9.226;2023-03-31T12:44:50;1.80;;;0.80;;
7939;SDS011;4015;48.888;9.226;2023-03-31T12:50:02;1.00;;;0.77;;
7939;SDS011;4015;48.888;9.226;2023-03-31T13:01:12;3.20;;;1.17;;
7939;SDS011;4015;48.888;9.226;2023-03-31T13:13:59;6.07;;;1.73;;
7939;SDS011;4015;48.888;9.226;2023-03-31T13:16:26;7.35;;;1.70;;
7939;SDS011;4015;48.888;9.226;2023-03-31T13:18:53;2.00;;;1.10;;
7939;SDS011;4015;48.888;9.226;2023-03-31T13:21:19;2.30;;;1.10;;
7939;SDS011;4015;48.888;9.226;2023-03-31T13:23:46;1.53;;;0.80;;
7939;SDS011;4015;48.888;9.226;2023-03-31T13:26:34;1.27;;;0.90;;
7939;SDS011;4015;48.888;9.226;2023-03-31T13:34:33;2.90;;;1.33;;
7939;SDS011;4015;48.888;9.226;2023-03-31T13:51:09;1.17;;;0.80;;
7939;SDS011;4015;48.888;9.226;2023-03-31T13:56:30;1.27;;;0.60;;
7939;SDS011;4015;48.888;9.226;2023-03-31T14:04:29;0.80;;;0.70;;
7939;SDS011;4015;48.888;9.226;2023-03-31T14:08:00;0.70;;;0.60;;
7939;SDS011;4015;48.888;9.226;2023-03-31T14:15:46;3.30;;;0.73;;
7939;SDS011;4015;48.888;9.226;2023-03-31T14:18:16;1.10;;;0.70;;
7939;SDS011;4015;48.888;9.226;2023-03-31T14:23:59;1.53;;;0.70;;
7939;SDS011;4015;48.888;9.226;2023-03-31T14:27:33;1.60;;;0.80;;
7939;SDS011;4015;48.888;9.226;2023-03-31T14:29:46;1.30;;;0.90;;
7939;SDS011;4015;48.888;9.226;2023-03-31T14:35:52;0.82;;;0.65;;
7939;SDS011;4015;48.888;9.226;2023-03-31T14:38:25;2.92;;;0.93;;
7939;SDS011;4015;48.888;9.226;2023-03-31T14:40:53;3.55;;;1.40;;
7939;SDS011;4015;48.888;9.226;2023-03-31T14:43:24;1.80;;;0.80;;
7939;SDS011;4015;48.888;9.226;2023-03-31T14:45:56;1.48;;;0.90;;
7939;SDS011;4015;48.888;9.226;2023-03-31T14:48:23;1.83;;;0.80;;
7939;SDS011;4015;48.888;9.226;2023-03-31T14:50:48;2.25;;;0.70;;
7939;SDS011;4015;48.888;9.226;2023-03-31T14:53:16;2.22;;;0.70;;
7939;SDS011;4015;48.888;9.226;2023-03-31T14:55:44;2.22;;;0.88;;
7939;SDS011;4015;48.888;9.226;2023-03-31T14:58:13;1.10;;;0.80;;
7939;SDS011;4015;48.888;9.226;2023-03-31T15:00:45;0.93;;;0.65;;
7939;SDS011;4015;48.888;9.226;2023-03-31T15:03:12;1.40;;;0.90;;
7939;SDS011;4015;48.888;9.226;2023-03-31T15:05:39;1.40;;;1.10;;
7939;SDS011;4015;48.888;9.226;2023-03-31T15:08:07;2.55;;;1.33;;
7939;SDS011;4015;48.888;9.226;2023-03-31T15:10:39;3.35;;;1.17;;
7939;SDS011;4015;48.888;9.226;2023-03-31T15:13:10;2.78;;;0.68;;
7939;SDS011;4015;48.888;9.226;2023-03-31T15:15:41;1.23;;;0.73;;
7939;SDS011;4015;48.888;9.226;2023-03-31T15:18:10;3.35;;;0.85;;
7939;SDS011;4015;48.888;9.226;2023-03-31T15:20:40;1.65;;;0.70;;
7939;SDS011;4015;48.888;9.226;2023-03-31T15:23:20;1.10;;;0.80;;
7939;SDS011;4015;48.888;9.226;2023-03-31T15:25:48;0.90;;;0.70;;
7939;SDS011;4015;48.888;9.226;2023-03-31T15:28:28;1.15;;;0.70;;
7939;SDS011;4015;48.888;9.226;2023-03-31T15:31:01;2.17;;;0.85;;
7939;SDS011;4015;48.888;9.226;2023-03-31T15:33:31;1.38;;;0.90;;
7939;SDS011;4015;48.888;9.226;2023-03-31T15:36:00;1.40;;;0.80;;
7939;SDS011;4015;48.888;9.226;2023-03-31T15:38:26;1.03;;;0.70;;
7939;SDS011;4015;48.888;9.226;2023-03-31T15:40:55;2.93;;;1.00;;
7939;SDS011;4015;48.888;9.226;2023-03-31T15:43:28;2.87;;;1.13;;
7939;SDS011;4015;48.888;9.226;2023-03-31T15:45:55;3.77;;;0.97;;
7939;SDS011;4015;48.888;9.226;2023-03-31T15:51:46;2.77;;;1.17;;
7939;SDS011;4015;48.888;9.226;2023-03-31T15:53:53;2.33;;;1.03;;
7939;SDS011;4015;48.888;9.226;2023-03-31T15:59:24;1.00;;;0.83;;
7939;SDS011;4015;48.888;9.226;2023-03-31T16:01:51;4.03;;;1.13;;
7939;SDS011;4015;48.888;9.226;2023-03-31T16:04:19;1.60;;;0.90;;
7939;SDS011;4015;48.888;9.226;2023-03-31T16:06:46;15.50;;;12.60;;
7939;SDS011;4015;48.888;9.226;2023-03-31T16:12:15;1.17;;;0.97;;
7939;SDS011;4015;48.888;9.226;2023-03-31T16:14:49;1.43;;;1.00;;
7939;SDS011;4015;48.888;9.226;2023-03-31T16:17:29;3.37;;;1.63;;
7939;SDS011;4015;48.888;9.226;2023-03-31T16:20:03;1.37;;;0.90;;
7939;SDS011;4015;48.888;9.226;2023-03-31T16:22:44;2.10;;;1.03;;
7939;SDS011;4015;48.888;9.226;2023-03-31T16:25:14;2.60;;;1.00;;
7939;SDS011;4015;48.888;9.226;2023-03-31T16:27:43;3.13;;;1.10;;
7939;SDS011;4015;48.888;9.226;2023-03-31T16:30:12;1.43;;;0.80;;
7939;SDS011;4015;48.888;9.226;2023-03-31T16:35:33;2.37;;;1.20;;
7939;SDS011;4015;48.888;9.226;2023-03-31T16:38:01;2.47;;;1.13;;
7939;SDS011;4015;48.888;9.226;2023-03-31T16:40:28;2.03;;;0.80;;
7939;SDS011;4015;48.888;9.226;2023-03-31T16:45:46;2.73;;;1.03;;
7939;SDS011;4015;48.888;9.226;2023-03-31T16:48:16;1.70;;;1.00;;
7939;SDS011;4015;48.888;9.226;2023-03-31T16:50:47;2.00;;;0.80;;
7939;SDS011;4015;48.888;9.226;2023-03-31T16:53:15;2.43;;;0.90;;
7939;SDS011;4015;48.888;9.226;2023-03-31T16:55:43;2.73;;;0.70;;
7939;SDS011;4015;48.888;9.226;2023-03-31T16:58:08;1.97;;;0.70;;
7939;SDS011;4015;48.888;9.226;2023-03-31T17:00:34;1.63;;;1.10;;
7939;SDS011;4015;48.888;9.226;2023-03-31T17:03:00;1.80;;;0.70;;
7939;SDS011;4015;48.888;9.226;2023-03-31T17:05:27;2.23;;;0.90;;
7939;SDS011;4015;48.888;9.226;2023-03-31T17:07:56;1.43;;;0.80;;
7939;SDS011;4015;48.888;9.226;2023-03-31T17:10:22;0.90;;;0.70;;
7939;SDS011;4015;48.888;9.226;2023-03-31T17:12:47;1.40;;;0.80;;
7939;SDS011;4015;48.888;9.226;2023-03-31T17:15:13;3.80;;;1.00;;
7939;SDS011;4015;48.888;9.226;2023-03-31T17:17:39;1.60;;;0.90;;
7939;SDS011;4015;48.888;9.226;2023-03-31T17:20:05;1.17;;;0.70;;
7939;SDS011;4015;48.888;9.226;2023-03-31T17:22:31;1.30;;;0.73;;
7939;SDS011;4015;48.888;9.226;2023-03-31T17:24:57;2.43;;;0.90;;
7939;SDS011;4015;48.888;9.226;2023-03-31T17:27:26;1.97;;;0.90;;
7939;SDS011;4015;48.888;9.226;2023-03-31T17:29:53;2.23;;;0.70;;
7939;SDS011;4015;48.888;9.226;2023-03-31T17:32:19;1.30;;;0.87;;
7939;SDS011;4015;48.888;9.226;2023-03-31T17:34:45;0.60;;;0.60;;
7939;SDS011;4015;48.888;9.226;2023-03-31T17:37:17;1.30;;;0.70;;
7939;SDS011;4015;48.888;9.226;2023-03-31T17:39:43;1.53;;;0.70;;
7939;SDS011;4015;48.888;9.226;2023-03-31T17:42:10;0.90;;;0.80;;
7939;SDS011;4015;48.888;9.226;2023-03-31T17:44:37;0.70;;;0.60;;
7939;SDS011;4015;48.888;9.226;2023-03-31T17:47:03;1.57;;;0.90;;
7939;SDS011;4015;48.888;9.226;2023-03-31T17:49:29;1.43;;;0.70;;
7939;SDS011;4015;48.888;9.226;2023-03-31T17:51:56;1.40;;;0.83;;
7939;SDS011;4015;48.888;9.226;2023-03-31T17:54:22;2.20;;;1.30;;
7939;SDS011;4015;48.888;9.226;2023-03-31T17:56:47;1.13;;;0.83;;
7939;SDS011;4015;48.888;9.226;2023-03-31T17:59:14;2.47;;;1.20;;
7939;SDS011;4015;48.888;9.226;2023-03-31T18:01:39;1.43;;;0.90;;
7939;SDS011;4015;48.888;9.226;2023-03-31T18:04:05;1.80;;;0.90;;
7939;SDS011;4015;48.888;9.226;2023-03-31T18:06:30;2.80;;;1.30;;
7939;SDS011;4015;48.888;9.226;2023-03-31T18:08:56;2.67;;;1.00;;
7939;SDS011;4015;48.888;9.226;2023-03-31T18:11:21;2.23;;;1.20;;
7939;SDS011;4015;48.888;9.226;2023-03-31T18:13:47;2.87;;;1.07;;
7939;SDS011;4015;48.888;9.226;2023-03-31T18:16:12;2.00;;;0.80;;
7939;SDS011;4015;48.888;9.226;2023-03-31T18:18:38;2.20;;;1.57;;
7939;SDS011;4015;48.888;9.226;2023-03-31T18:21:05;3.47;;;1.10;;
7939;SDS011;4015;48.888;9.226;2023-03-31T18:23:32;2.27;;;1.00;;
7939;SDS011;4015;48.888;9.226;2023-03-31T18:25:58;1.03;;;0.93;;
7939;SDS011;4015;48.888;9.226;2023-03-31T18:28:24;2.40;;;1.00;;